Harvard, ID

9:27 PM PDT on October 30, 2014 (GMT -0700)
ITD Shoshone County Line ID US | Change Station
CLOSE
Current Station
Personal Weather Station
Location: Clarkia, ID
Elevation: 2883 ft
Nearby Weather Stations

Elev 2883 ft 46.97 °N, 116.28 °W | Updated 54 minutes ago

Partly Cloudy
Partly Cloudy
46 °F
Feels Like 46 °F
N
0
Wind Variable Wind from ESE
Gusts 1.0 mph

Today
High -- | Low -- °F
--% Chance of Precip.
Yesterday
High -- | Low -- °F
Precip. -- in
7:26 AM 5:33 PM
Waxing Crescent, 51% visible
Pressure 29.85 in
Visibility 8.0 miles
Clouds Clear
Windchill 46 °F
Dew Point 46 °F
Humidity 100%
Rainfall 0.00 in
Snow Depth Not available.
UV 0 out of 12
Pollen 2.20 out of 12
Air Quality Not available.
Flu Activity Not available.
METAR KPUW 310353Z AUTO 09012KT 8SM CLR 13/07 A2985 RMK AO2 SLP107 T01330072

More Conditions Fewer Conditions

Pressure 29.85 in
Visibility 8.0 miles
Clouds Clear
Windchill 46 °F
Dew Point 46 °F
Humidity 100%
Rainfall 0.00 in
Snow Depth Not available.
UV 0 out of 12
Pollen 2.20 out of 12
Air Quality Not available.
Flu Activity Not available.
METAR KPUW 310353Z AUTO 09012KT 8SM CLR 13/07 A2985 RMK AO2 SLP107 T01330072

More Conditions Fewer Conditions

10-Day Weather Forecast

Almanac

Astronomy

Oct. 30, 2014 Rise Set
Actual Time
Civil Twilight
Nautical Twilight
Astronomical Twilight
Moon
Length of Visible Light
Length of Day
Tomorrow will be .
, % of the Moon is Illuminated

Today's Extremes

State Highs State Lows

Community

WunderPhotos

Upload Photos

1,766,565 photos uploaded!

WunderBlogs® & News

Nearby

Air Quality

  Air Quality AQ Index Pollutant
Not available.

Snow Depth

Station Depth Elevation

Earthquake Activity

City Distance Mag. Time & Date
Minimum magnitude displayed is 2.5.

Coastal Water Temperatures

Place Temperature

Nearby Weather Stations